Time;durP1;ratioP1;P1;durP2;ratioP2;P2;SDS_P1;SDS_P2;PMS_P1;PMS_P2;Temp;Humidity;BMP_temperature;BMP_pressure;BME280_temperature;BME280_humidity;BME280_pressure;Samples;Min_cycle;Max_cycle;Signal;HPM_P1;HPM_P2
2023/05/03 10:23:02;;;;;;;14.50;6.10;;;;;;;14.83;68.38;99939.37;102992;1283;649085;-85
2023/05/03 10:26:14;;;;;;;13.80;6.10;;;;;;;14.87;68.48;99942.64;104626;1270;136587;-87
2023/05/03 10:28:53;;;;;;;20.90;8.80;;;;;;;14.79;68.30;99941.67;105170;1259;94325;-84
2023/05/03 10:31:54;;;;;;;12.50;5.60;;;;;;;14.65;68.02;99946.08;105066;1260;107237;-85
2023/05/03 10:34:31;;;;;;;11.40;4.50;;;;;;;14.44;67.50;99942.82;104950;1266;101328;-88
2023/05/03 10:37:46;;;;;;;;;;;;;;;;;;;;;
2023/05/03 10:40:49;;;;;;;9.30;4.30;;;;;;;14.04;67.42;99947.34;105441;1252;94309;-83
2023/05/03 10:43:51;;;;;;;10.50;4.50;;;;;;;13.92;67.53;99948.78;105374;1253;94527;-85
2023/05/03 10:46:40;;;;;;;13.30;5.80;;;;;;;13.89;67.30;99950.41;105242;1259;107018;-85
2023/05/03 10:49:37;;;;;;;11.80;4.80;;;;;;;13.73;67.07;99953.31;105524;1260;101033;-85
2023/05/03 10:52:37;;;;;;;8.90;4.30;;;;;;;13.66;67.19;99957.58;105846;1254;107784;-85
2023/05/03 10:55:20;;;;;;;9.50;4.30;;;;;;;13.55;66.90;99955.65;106088;1256;95154;-85
2023/05/03 10:58:04;;;;;;;9.40;4.30;;;;;;;13.47;66.81;99951.96;105656;1256;95645;-83
2023/05/03 11:00:40;;;;;;;8.00;3.80;;;;;;;13.52;67.14;99956.40;105504;1257;108554;-85
2023/05/03 11:03:13;;;;;;;11.40;4.60;;;;;;;13.64;66.94;99953.82;105149;1259;103018;-85
2023/05/03 11:05:46;;;;;;;15.40;5.20;;;;;;;13.72;66.80;99955.70;105781;1253;107599;-85
2023/05/03 11:08:20;;;;;;;21.30;10.50;;;;;;;13.76;66.47;99956.30;105842;1257;95294;-89
2023/05/03 11:10:58;;;;;;;18.90;7.40;;;;;;;13.81;67.02;99953.50;105540;1256;95503;-85
2023/05/03 11:13:31;;;;;;;9.70;4.10;;;;;;;13.95;66.91;99956.03;105458;1254;108038;-85
2023/05/03 11:16:06;;;;;;;6.40;3.40;;;;;;;13.97;66.42;99951.75;105681;1254;101625;-85
2023/05/03 11:18:35;;;;;;;6.90;3.40;;;;;;;14.03;66.70;99952.63;105488;1256;107610;-85
2023/05/03 11:21:12;;;;;;;10.10;3.90;;;;;;;14.27;66.89;99952.11;105319;1257;95230;-88
2023/05/03 11:23:43;;;;;;;6.80;3.70;;;;;;;14.45;66.44;99955.43;105385;1256;97069;-85
2023/05/03 11:26:24;;;;;;;7.30;3.70;;;;;;;14.53;66.25;99954.84;105196;1259;108680;-88
2023/05/03 11:28:59;;;;;;;8.80;3.50;;;;;;;14.56;66.40;99953.15;105235;1254;100511;-85
2023/05/03 11:31:47;;;;;;;;;;;;;;;;;;;;;
2023/05/03 11:34:23;;;;;;;10.80;3.50;;;;;;;14.42;65.64;99955.66;105496;1256;96176;-85
2023/05/03 11:36:51;;;;;;;12.50;5.20;;;;;;;14.27;65.79;99951.23;105440;1253;95787;-84
2023/05/03 11:39:27;;;;;;;9.30;4.20;;;;;;;14.18;65.34;99955.45;105546;1256;109091;-83
2023/05/03 11:42:04;;;;;;;13.40;4.50;;;;;;;14.06;65.52;99955.64;105384;1258;101365;-88
2023/05/03 11:44:33;;;;;;;10.90;4.20;;;;;;;14.05;65.89;99953.20;105292;1257;107860;-85
2023/05/03 11:47:11;;;;;;;11.80;5.30;;;;;;;14.05;65.99;99955.16;105442;1253;96647;-83
2023/05/03 11:49:56;;;;;;;11.40;4.90;;;;;;;14.02;65.77;99948.92;105664;1257;95550;-83
2023/05/03 11:52:26;;;;;;;9.10;4.50;;;;;;;13.98;65.64;99949.08;105538;1259;108558;-82
2023/05/03 11:54:55;;;;;;;9.60;4.60;;;;;;;13.99;65.69;99951.13;105381;1254;100505;-80
2023/05/03 11:57:30;;;;;;;10.60;4.90;;;;;;;14.02;65.70;99950.34;105462;1267;107632;-81
2023/05/03 12:00:16;;;;;;;10.90;4.70;;;;;;;14.08;65.48;99954.02;105387;1256;95859;-83
2023/05/03 12:03:03;;;;;;;11.50;4.50;;;;;;;14.16;65.76;99948.46;105295;1253;96881;-90
2023/05/03 12:05:32;;;;;;;11.10;5.00;;;;;;;14.22;65.47;99948.55;105174;1264;107682;-82
2023/05/03 12:08:10;;;;;;;12.60;5.20;;;;;;;14.09;65.47;99943.96;105917;1257;100527;-89
2023/05/03 12:10:44;;;;;;;10.20;5.00;;;;;;;14.10;65.65;99944.21;105362;1257;107566;-88
2023/05/03 12:13:15;;;;;;;13.20;5.60;;;;;;;14.21;65.70;99945.09;105381;1260;95346;-84
2023/05/03 12:16:03;;;;;;;12.00;5.70;;;;;;;14.27;65.57;99940.82;105499;1254;95387;-88
2023/05/03 12:19:01;;;;;;;9.00;4.60;;;;;;;14.38;65.82;99941.52;105650;1256;108209;-83
2023/05/03 12:21:48;;;;;;;13.10;5.50;;;;;;;14.39;65.50;99943.33;105229;1261;101355;-82
2023/05/03 12:24:31;;;;;;;13.70;6.00;;;;;;;14.36;65.52;99938.59;105412;1254;107692;-83
2023/05/03 12:27:01;;;;;;;12.20;5.70;;;;;;;14.40;65.38;99941.55;105369;1257;95273;-85
2023/05/03 12:29:39;;;;;;;15.40;6.60;;;;;;;14.30;65.38;99938.13;105506;1256;95706;-85
2023/05/03 12:32:08;;;;;;;16.70;6.30;;;;;;;14.22;65.39;99944.33;105444;1259;108487;-83
2023/05/03 12:34:45;;;;;;;15.30;6.10;;;;;;;14.12;65.29;99937.31;105419;1265;101091;-78
2023/05/03 12:37:14;;;;;;;15.60;6.10;;;;;;;14.01;65.46;99933.51;105489;1257;106223;-76
2023/05/03 12:39:43;;;;;;;13.50;6.40;;;;;;;13.84;65.38;99932.06;105573;1276;96026;-77
2023/05/03 12:42:22;;;;;;;15.00;6.90;;;;;;;13.65;65.48;99931.47;105258;1264;95753;-72
2023/05/03 12:44:56;;;;;;;14.00;5.60;;;;;;;13.48;65.45;99928.18;105196;1256;110057;-82
2023/05/03 12:47:27;;;;;;;12.60;5.60;;;;;;;13.36;65.53;99929.34;105254;1254;100880;-83
2023/05/03 12:49:56;;;;;;;16.60;6.80;;;;;;;13.26;65.48;99930.58;105324;1254;108048;-77
2023/05/03 12:52:33;;;;;;;14.70;6.10;;;;;;;13.17;65.60;99930.69;105178;1256;95220;-80
2023/05/03 12:55:06;;;;;;;15.70;7.00;;;;;;;13.13;65.64;99932.20;105098;1257;95755;-82
2023/05/03 12:57:41;;;;;;;16.40;6.70;;;;;;;13.12;65.60;99928.01;105180;1254;108577;-79
2023/05/03 13:00:16;;;;;;;14.50;6.40;;;;;;;13.14;65.80;99931.44;105170;1254;100245;-85
2023/05/03 13:02:51;;;;;;;14.00;6.40;;;;;;;13.14;65.73;99935.17;105416;1260;107239;-81
2023/05/03 13:05:23;;;;;;;14.90;6.80;;;;;;;13.09;65.70;99934.42;105242;1256;95212;-79
2023/05/03 13:08:09;;;;;;;24.60;10.40;;;;;;;13.03;65.81;99930.05;105406;1266;96946;-81
2023/05/03 13:10:54;;;;;;;16.80;7.80;;;;;;;13.01;65.94;99935.01;105450;1257;108162;-80
2023/05/03 13:13:24;;;;;;;17.20;7.60;;;;;;;12.96;65.73;99936.58;105233;1254;100724;-83
2023/05/03 13:16:04;;;;;;;14.80;6.10;;;;;;;12.86;65.97;99934.77;105260;1260;107753;-80
2023/05/03 13:18:32;;;;;;;17.70;7.80;;;;;;;12.84;66.02;99936.34;105607;1254;95336;-83
2023/05/03 13:21:00;;;;;;;15.90;6.90;;;;;;;12.91;66.17;99936.89;105617;1253;96172;-82
2023/05/03 13:23:28;;;;;;;20.90;10.00;;;;;;;13.02;66.12;99937.43;105316;1253;107455;-77
2023/05/03 13:25:58;;;;;;;15.40;7.10;;;;;;;13.11;66.24;99934.48;105065;1254;100889;-79
2023/05/03 13:28:26;;;;;;;12.50;6.00;;;;;;;13.16;66.07;99933.45;105187;1254;106610;-79
2023/05/03 13:30:55;;;;;;;14.30;6.20;;;;;;;13.19;66.15;99932.88;105247;1253;96164;-78
2023/05/03 13:33:23;;;;;;;10.70;5.40;;;;;;;13.21;66.16;99931.81;105359;1256;95749;-77
2023/05/03 13:35:51;;;;;;;10.90;5.40;;;;;;;13.18;66.11;99938.46;105279;1257;108580;-76
2023/05/03 13:38:19;;;;;;;34.90;16.60;;;;;;;13.13;66.19;99938.05;105422;1257;100881;-79
2023/05/03 13:40:47;;;;;;;23.30;10.00;;;;;;;13.10;66.18;99944.31;105664;1254;109051;-76
2023/05/03 13:43:15;;;;;;;20.20;10.90;;;;;;;13.08;66.18;99937.89;105350;1257;95241;-77
2023/05/03 13:45:43;;;;;;;14.90;6.70;;;;;;;13.03;66.16;99942.89;106135;1256;95932;-75
2023/05/03 13:48:11;;;;;;;15.50;6.10;;;;;;;12.94;66.10;99937.20;105386;1253;108684;-77
2023/05/03 13:50:46;;;;;;;15.90;6.60;;;;;;;12.87;66.15;99935.05;105556;1272;99349;-72
2023/05/03 13:53:14;;;;;;;15.30;6.30;;;;;;;12.80;66.13;99930.51;105419;1259;109137;-74
2023/05/03 13:55:42;;;;;;;14.90;5.50;;;;;;;12.75;66.27;99930.66;105361;1256;95244;-74
2023/05/03 13:58:10;;;;;;;14.80;6.90;;;;;;;12.69;66.21;99928.25;105101;1254;95175;-73
2023/05/03 14:00:38;;;;;;;19.70;8.10;;;;;;;12.67;66.39;99927.50;105108;1256;109113;-75
2023/05/03 14:03:06;;;;;;;22.30;8.90;;;;;;;12.66;66.39;99926.69;105627;1256;100540;-77
2023/05/03 14:05:34;;;;;;;15.00;6.90;;;;;;;12.62;66.40;99926.73;107666;1254;107431;-74
2023/05/03 14:08:03;;;;;;;17.20;8.40;;;;;;;12.60;66.33;99927.62;105396;1257;95322;-77
2023/05/03 14:10:34;;;;;;;16.90;6.50;;;;;;;12.57;66.44;99935.27;105522;1257;95248;-78
2023/05/03 14:13:03;;;;;;;21.20;9.40;;;;;;;12.56;66.40;99937.33;105666;1256;109017;-77
2023/05/03 14:15:31;;;;;;;19.90;8.60;;;;;;;12.56;66.56;99942.27;105591;1257;100887;-75
2023/05/03 14:18:53;;;;;;;14.80;6.80;;;;;;;12.61;66.62;99941.80;102333;1302;636222;-74
2023/05/03 14:21:20;;;;;;;12.90;5.90;;;;;;;12.60;66.73;99940.09;104547;1267;94437;-74
2023/05/03 14:23:50;;;;;;;14.50;6.20;;;;;;;12.60;66.59;99941.30;104325;1277;95437;-74
2023/05/03 14:26:19;;;;;;;14.90;6.10;;;;;;;12.59;66.71;99941.39;104540;1269;107268;-75
2023/05/03 14:28:47;;;;;;;12.80;5.80;;;;;;;12.59;66.72;99946.18;104710;1267;101461;-74
2023/05/03 14:31:15;;;;;;;13.60;5.90;;;;;;;12.57;66.68;99945.39;104690;1267;108739;-85
2023/05/03 14:33:43;;;;;;;15.80;6.70;;;;;;;12.56;66.87;99943.02;104697;1267;149686;-74
2023/05/03 14:36:11;;;;;;;13.70;6.60;;;;;;;12.54;66.81;99944.54;104812;1266;95278;-77
2023/05/03 14:38:39;;;;;;;16.30;6.70;;;;;;;12.56;66.82;99944.63;105108;1259;107160;-75
2023/05/03 14:41:08;;;;;;;14.70;6.60;;;;;;;12.54;66.86;99945.98;105243;1257;100016;-74
2023/05/03 14:43:37;;;;;;;18.60;7.40;;;;;;;12.54;66.99;99945.98;105026;1261;106927;-73
2023/05/03 14:46:05;;;;;;;15.80;6.30;;;;;;;12.53;66.90;99945.70;105411;1259;95156;-76
2023/05/03 14:48:32;;;;;;;16.50;6.90;;;;;;;12.50;67.00;99943.39;105196;1261;95713;-75
2023/05/03 14:51:00;;;;;;;17.00;8.00;;;;;;;12.47;67.03;99945.00;105435;1257;108564;-75
2023/05/03 14:53:31;;;;;;;18.90;8.30;;;;;;;12.45;66.92;99939.83;105202;1258;100822;-74
2023/05/03 14:56:00;;;;;;;17.90;7.20;;;;;;;12.41;67.02;99939.00;105340;1257;106698;-74
2023/05/03 14:58:29;;;;;;;14.60;6.70;;;;;;;12.41;66.98;99938.29;105177;1254;96218;-78
2023/05/03 15:00:56;;;;;;;14.70;6.80;;;;;;;12.40;67.08;99939.47;105187;1257;95309;-75
2023/05/03 15:03:25;;;;;;;15.80;7.30;;;;;;;12.39;67.15;99942.90;105316;1254;108525;-74
2023/05/03 15:05:53;;;;;;;15.50;6.20;;;;;;;12.35;67.03;99942.05;105263;1254;100579;-76
2023/05/03 15:08:21;;;;;;;14.60;6.70;;;;;;;12.30;67.08;99945.05;105117;1267;106883;-74
2023/05/03 15:10:50;;;;;;;14.80;7.20;;;;;;;12.30;67.23;99942.94;105101;1260;95231;-75
2023/05/03 15:13:18;;;;;;;17.80;8.20;;;;;;;12.28;67.28;99938.45;105455;1258;96661;-74
2023/05/03 15:15:46;;;;;;;18.40;7.60;;;;;;;12.26;67.33;99938.55;105235;1257;108545;-75
2023/05/03 15:18:17;;;;;;;15.50;7.20;;;;;;;12.25;67.40;99939.89;105253;1260;100843;-85
2023/05/03 15:20:46;;;;;;;15.80;7.20;;;;;;;12.22;67.48;99940.06;104762;1258;106646;-75
2023/05/03 15:23:13;;;;;;;17.60;7.60;;;;;;;12.18;67.43;99941.02;104949;1265;95393;-74
2023/05/03 15:25:42;;;;;;;18.90;7.90;;;;;;;12.13;67.43;99944.59;105080;1260;95781;-74
2023/05/03 15:28:10;;;;;;;19.00;8.80;;;;;;;12.09;67.41;99942.69;104802;1260;109122;-75
2023/05/03 15:30:38;;;;;;;19.90;9.70;;;;;;;12.05;67.52;99945.59;104968;1270;100511;-75
2023/05/03 15:33:06;;;;;;;17.90;8.60;;;;;;;12.01;67.48;99947.83;105120;1257;107639;-74
2023/05/03 15:35:39;;;;;;;18.10;8.60;;;;;;;12.00;67.69;99951.60;104988;1257;95227;-75
2023/05/03 15:38:07;;;;;;;19.80;9.20;;;;;;;12.01;67.64;99951.17;104960;1258;95628;-74
2023/05/03 15:40:36;;;;;;;21.30;9.50;;;;;;;12.03;67.81;99955.51;104987;1259;109411;-75
2023/05/03 15:43:04;;;;;;;26.00;14.00;;;;;;;12.05;67.64;99951.10;104987;1279;100865;-75
2023/05/03 15:45:32;;;;;;;23.20;11.00;;;;;;;12.05;67.67;99954.64;104890;1260;107053;-79
2023/05/03 15:48:00;;;;;;;24.90;10.90;;;;;;;12.03;67.81;99952.46;105088;1260;96101;-74
2023/05/03 15:50:29;;;;;;;20.30;10.10;;;;;;;12.00;67.75;99951.10;104909;1260;95729;-73
2023/05/03 15:52:57;;;;;;;21.50;9.30;;;;;;;11.95;67.72;99954.41;104993;1257;108367;-75
2023/05/03 15:55:26;;;;;;;18.40;8.80;;;;;;;11.91;67.91;99952.47;105148;1257;100866;-75
2023/05/03 15:57:55;;;;;;;16.20;7.70;;;;;;;11.89;67.86;99952.64;104892;1261;107911;-77
2023/05/03 16:00:24;;;;;;;18.00;8.60;;;;;;;11.82;68.01;99953.07;104944;1270;95429;-74
2023/05/03 16:02:52;;;;;;;22.20;10.30;;;;;;;11.81;67.82;99954.42;104735;1261;95749;-75
2023/05/03 16:05:20;;;;;;;19.30;8.00;;;;;;;11.78;67.97;99949.77;104721;1270;108334;-78
2023/05/03 16:07:48;;;;;;;17.50;8.10;;;;;;;11.75;68.01;99951.19;107166;1260;100868;-74
2023/05/03 16:10:16;;;;;;;19.30;7.80;;;;;;;11.72;68.25;99949.77;104996;1260;108722;-77
2023/05/03 16:12:44;;;;;;;20.70;9.00;;;;;;;11.69;68.11;99948.05;105310;1260;95391;-74
2023/05/03 16:15:12;;;;;;;21.10;10.50;;;;;;;11.67;68.07;99948.67;105090;1257;95534;-76
2023/05/03 16:17:40;;;;;;;23.70;10.10;;;;;;;11.64;68.12;99949.25;106822;1257;108717;-75
2023/05/03 16:20:09;;;;;;;24.00;12.20;;;;;;;11.63;68.30;99950.52;105343;1258;102491;-74
2023/05/03 16:22:38;;;;;;;25.50;13.50;;;;;;;11.64;68.15;99952.77;105349;1256;107607;-75
2023/05/03 16:25:14;;;;;;;22.10;10.70;;;;;;;11.63;68.08;99948.45;105868;1255;95323;-75
2023/05/03 16:27:43;;;;;;;22.70;11.20;;;;;;;11.57;68.19;99950.91;105121;1254;95695;-74
2023/05/03 16:30:12;;;;;;;20.80;9.30;;;;;;;11.51;68.12;99952.89;105326;1254;108772;-76
2023/05/03 16:32:44;;;;;;;20.80;10.70;;;;;;;11.44;68.10;99958.09;105526;1257;101017;-76
2023/05/03 16:35:12;;;;;;;20.10;9.70;;;;;;;11.35;68.07;99957.95;105290;1257;107711;-75
2023/05/03 16:37:40;;;;;;;23.00;8.80;;;;;;;11.22;68.30;99958.58;105343;1257;96170;-74
2023/05/03 16:40:11;;;;;;;18.10;8.50;;;;;;;11.16;68.32;99959.13;105254;1257;95587;-74
2023/05/03 16:42:41;;;;;;;20.70;9.10;;;;;;;11.11;68.41;99961.91;105356;1257;109184;-74
2023/05/03 16:45:11;;;;;;;20.30;9.60;;;;;;;11.07;68.34;99965.34;105243;1258;102827;-77
2023/05/03 16:47:40;;;;;;;20.90;9.00;;;;;;;11.05;68.56;99969.02;105353;1251;107649;-73
2023/05/03 16:50:09;;;;;;;19.80;9.50;;;;;;;11.03;68.56;99972.13;105389;1257;95156;-74
2023/05/03 16:52:41;;;;;;;18.00;9.10;;;;;;;11.01;68.58;99970.66;105466;1256;95714;-74
2023/05/03 16:55:10;;;;;;;17.20;9.20;;;;;;;11.00;68.71;99971.43;105457;1256;108463;-72
2023/05/03 16:57:41;;;;;;;22.20;10.40;;;;;;;11.00;68.69;99973.54;105457;1256;100871;-80
2023/05/03 17:00:10;;;;;;;22.80;12.30;;;;;;;11.00;68.63;99973.71;105089;1267;107151;-75
2023/05/03 17:02:40;;;;;;;25.70;13.60;;;;;;;10.97;68.88;99965.74;105360;1266;95349;-75
2023/05/03 17:05:09;;;;;;;21.90;11.80;;;;;;;10.97;68.81;99968.77;105420;1258;95754;-74
2023/05/03 17:07:39;;;;;;;22.50;11.80;;;;;;;10.95;68.97;99969.94;105308;1257;108527;-74
2023/05/03 17:10:08;;;;;;;28.40;13.40;;;;;;;10.95;69.00;99967.84;105172;1254;102452;-74
2023/05/03 17:12:36;;;;;;;36.20;23.20;;;;;;;10.94;69.01;99966.08;105411;1265;107531;-74
2023/05/03 17:15:05;;;;;;;30.00;19.00;;;;;;;10.94;69.11;99973.23;105365;1258;95265;-74
2023/05/03 17:17:34;;;;;;;44.10;29.30;;;;;;;10.93;69.03;99969.72;105364;1257;95632;-82
2023/05/03 17:20:02;;;;;;;47.00;31.20;;;;;;;10.92;69.07;99968.37;105361;1257;108657;-74
2023/05/03 17:22:30;;;;;;;31.70;18.40;;;;;;;10.91;69.19;99972.89;105197;1253;100885;-74
2023/05/03 17:24:58;;;;;;;32.60;17.10;;;;;;;10.87;69.10;99971.67;105439;1276;107659;-74
2023/05/03 17:27:26;;;;;;;30.40;17.40;;;;;;;10.83;69.26;99972.75;105371;1259;95288;-74
2023/05/03 17:29:56;;;;;;;47.20;27.40;;;;;;;10.82;69.29;99974.29;105402;1257;95645;-76
2023/05/03 17:32:24;;;;;;;41.20;25.50;;;;;;;10.83;69.43;99978.64;105356;1257;109299;-78
2023/05/03 17:34:52;;;;;;;31.30;19.00;;;;;;;10.83;69.37;99978.29;105387;1263;100779;-76
2023/05/03 17:37:22;;;;;;;34.40;20.70;;;;;;;10.81;69.43;99980.56;105331;1259;107079;-83
2023/05/03 17:39:50;;;;;;;40.30;25.80;;;;;;;10.80;69.54;99981.13;105016;1256;96174;-77
2023/05/03 17:42:18;;;;;;;53.20;34.80;;;;;;;10.82;69.49;99983.48;105054;1254;95665;-77
2023/05/03 17:44:47;;;;;;;42.80;29.60;;;;;;;10.81;69.43;99981.95;105077;1258;109282;-75
2023/05/03 17:47:16;;;;;;;37.90;24.30;;;;;;;10.79;69.53;99984.23;105268;1257;100873;-77
2023/05/03 17:49:44;;;;;;;51.90;27.10;;;;;;;10.76;69.54;99987.92;105211;1258;107750;-76
2023/05/03 17:52:12;;;;;;;44.30;25.70;;;;;;;10.72;69.54;99990.44;105255;1257;95230;-78
2023/05/03 17:54:40;;;;;;;28.20;16.80;;;;;;;10.71;69.57;99986.63;104991;1257;95701;-76
2023/05/03 17:57:08;;;;;;;28.80;16.80;;;;;;;10.69;69.67;99987.98;105233;1258;108508;-76
2023/05/03 17:59:37;;;;;;;25.70;15.30;;;;;;;10.69;69.72;99989.23;105432;1257;100445;-75
2023/05/03 18:02:05;;;;;;;26.80;15.60;;;;;;;10.67;69.69;99992.52;106212;1254;108076;-76
2023/05/03 18:04:34;;;;;;;32.10;16.90;;;;;;;10.65;69.70;99996.91;106714;1253;95268;-85
2023/05/03 18:07:02;;;;;;;26.30;16.60;;;;;;;10.63;69.81;99995.95;105298;1257;96702;-77
2023/05/03 18:09:31;;;;;;;35.70;22.00;;;;;;;10.62;69.77;99998.68;105005;1264;109273;-76
2023/05/03 18:12:00;;;;;;;30.90;17.60;;;;;;;10.59;69.83;100003.08;105254;1257;100161;-77
2023/05/03 18:14:29;;;;;;;40.10;23.10;;;;;;;10.57;69.92;100001.61;105239;1267;107691;-76
2023/05/03 18:16:58;;;;;;;46.20;27.40;;;;;;;10.56;69.87;99999.54;105110;1261;95298;-76
2023/05/03 18:19:26;;;;;;;39.80;25.10;;;;;;;10.55;70.03;100003.34;105384;1253;96728;-76
2023/05/03 18:21:53;;;;;;;53.10;37.60;;;;;;;10.54;70.01;100003.54;105231;1256;108585;-76
2023/05/03 18:24:22;;;;;;;85.90;53.90;;;;;;;10.56;70.18;100007.67;106591;1254;100883;-78
2023/05/03 18:26:49;;;;;;;79.00;58.80;;;;;;;10.57;70.11;100012.05;105321;1257;107625;-76
2023/05/03 18:29:17;;;;;;;78.70;51.90;;;;;;;10.58;70.07;100018.05;105588;1257;96763;-75
2023/05/03 18:31:46;;;;;;;79.90;49.40;;;;;;;10.59;70.14;100013.91;105329;1257;97103;-75
2023/05/03 18:34:14;;;;;;;67.40;45.10;;;;;;;10.62;70.20;100012.14;105617;1254;109898;-76
2023/05/03 18:36:42;;;;;;;62.50;42.90;;;;;;;10.61;70.15;100013.09;105364;1257;101157;-76
2023/05/03 18:39:12;;;;;;;76.10;47.50;;;;;;;10.58;70.30;100010.63;105293;1266;107745;-75
2023/05/03 18:41:40;;;;;;;66.50;42.10;;;;;;;10.56;70.26;100012.09;105599;1254;96609;-77
2023/05/03 18:44:09;;;;;;;52.70;32.40;;;;;;;10.59;70.22;100012.52;105377;1256;96597;-75
2023/05/03 18:46:36;;;;;;;44.90;28.10;;;;;;;10.60;70.32;100013.35;108659;1253;110410;-76
2023/05/03 18:49:04;;;;;;;43.40;29.20;;;;;;;10.58;70.26;100013.27;108653;1253;100534;-76
2023/05/03 18:51:32;;;;;;;39.90;26.20;;;;;;;10.58;70.36;100009.16;106730;1253;107095;-75
2023/05/03 18:54:00;;;;;;;34.10;21.70;;;;;;;10.59;70.33;100009.48;105321;1254;96590;-75
2023/05/03 18:56:59;;;;;;;33.00;20.80;;;;;;;10.59;70.34;100010.37;105738;1253;96516;-79
2023/05/03 19:00:33;;;;;;;33.00;20.80;;;;;;;10.58;70.40;100008.88;13611;1263;163781774;-77
2023/05/03 19:04:09;;;;;;;33.00;20.80;;;;;;;10.53;70.59;100006.44;3821;1282;177314695;-78
2023/05/03 19:06:38;;;;;;;26.60;15.70;;;;;;;10.52;70.54;100002.81;106083;1262;2206008;-78
2023/05/03 19:09:10;;;;;;;28.00;17.10;;;;;;;10.53;70.44;100003.79;105922;1262;96663;-81
2023/05/03 19:11:41;;;;;;;36.70;21.30;;;;;;;10.53;70.47;100001.47;105463;1262;97839;-79
2023/05/03 19:15:34;;;;;;;29.10;17.50;;;;;;;10.54;70.57;99994.30;101752;1297;635848;-80
2023/05/03 19:18:02;;;;;;;28.30;17.40;;;;;;;10.50;70.45;99991.70;104275;1281;94852;-79
2023/05/03 19:20:30;;;;;;;28.80;16.50;;;;;;;10.51;70.56;99992.90;104303;1272;94408;-79
2023/05/03 19:22:59;;;;;;;28.20;16.10;;;;;;;10.48;70.54;99990.77;104310;1271;106856;-80
2023/05/03 19:25:26;;;;;;;26.90;15.60;;;;;;;10.46;70.61;99992.46;104358;1269;94312;-80
2023/05/03 19:27:54;;;;;;;28.10;16.10;;;;;;;10.44;70.67;99996.64;105116;1263;107899;-81
2023/05/03 19:30:22;;;;;;;26.50;16.20;;;;;;;10.43;70.77;99997.79;104987;1260;165793;-80
2023/05/03 19:32:50;;;;;;;26.00;15.90;;;;;;;10.41;70.68;100000.74;106234;1257;94172;-80
2023/05/03 19:35:18;;;;;;;28.50;17.30;;;;;;;10.38;70.82;100003.05;106011;1260;108421;-79
2023/05/03 19:37:46;;;;;;;32.80;20.20;;;;;;;10.37;70.75;100000.23;107176;1256;94175;-80
2023/05/03 19:40:16;;;;;;;32.90;21.20;;;;;;;10.36;70.85;100002.21;106246;1260;108089;-80
2023/05/03 19:42:45;;;;;;;33.60;22.90;;;;;;;10.35;70.86;99997.49;105357;1257;95247;-79
2023/05/03 19:45:13;;;;;;;34.00;21.10;;;;;;;10.33;70.77;99995.67;105249;1260;96171;-79
2023/05/03 19:47:43;;;;;;;30.30;20.20;;;;;;;10.31;70.85;99990.10;105094;1260;108627;-79
2023/05/03 19:50:11;;;;;;;31.50;19.40;;;;;;;10.31;70.95;99994.55;104901;1260;96197;-79
2023/05/03 19:52:40;;;;;;;29.20;19.30;;;;;;;10.31;71.03;99992.44;104958;1260;108037;-79
2023/05/03 19:55:09;;;;;;;33.20;20.90;;;;;;;10.31;71.04;99998.79;105072;1260;96162;-80
2023/05/03 19:57:37;;;;;;;31.90;20.40;;;;;;;10.32;71.11;100000.16;105129;1257;95256;-80
2023/05/03 20:00:06;;;;;;;32.90;21.80;;;;;;;10.34;71.16;100002.37;105619;1257;107732;-80
2023/05/03 20:02:35;;;;;;;31.30;20.50;;;;;;;10.34;71.15;100001.27;105119;1261;95394;-80
2023/05/03 20:05:04;;;;;;;36.50;22.50;;;;;;;10.33;71.13;100006.48;104894;1264;108944;-80
2023/05/03 20:07:33;;;;;;;27.80;18.70;;;;;;;10.34;71.18;100000.59;104806;1265;96150;-80
2023/05/03 20:10:01;;;;;;;29.20;18.90;;;;;;;10.34;71.26;100001.45;104992;1260;95261;-80
2023/05/03 20:12:30;;;;;;;30.90;20.40;;;;;;;10.34;71.30;99997.77;105408;1261;108958;-80
2023/05/03 20:14:58;;;;;;;29.50;20.00;;;;;;;10.34;71.32;99997.74;105587;1257;95219;-79
2023/05/03 20:17:26;;;;;;;33.40;20.80;;;;;;;10.33;71.28;99994.98;104785;1262;106780;-80
2023/05/03 20:19:54;;;;;;;33.70;20.50;;;;;;;10.31;71.31;99994.55;105188;1256;95170;-79
2023/05/03 20:22:22;;;;;;;32.80;20.70;;;;;;;10.28;71.32;99991.83;105192;1262;95285;-79
2023/05/03 20:24:50;;;;;;;33.80;21.20;;;;;;;10.27;71.36;99992.59;105046;1261;107881;-79
2023/05/03 20:27:19;;;;;;;33.70;21.60;;;;;;;10.28;71.38;99990.77;104668;1264;96178;-81
2023/05/03 20:29:48;;;;;;;34.10;22.30;;;;;;;10.27;71.43;99987.98;104598;1268;107257;-80
2023/05/03 20:32:16;;;;;;;33.90;22.20;;;;;;;10.27;71.46;99989.63;104618;1262;96047;-79
2023/05/03 20:34:45;;;;;;;35.00;22.70;;;;;;;10.24;71.42;99991.69;104660;1262;95163;-79
2023/05/03 20:37:13;;;;;;;34.70;21.20;;;;;;;10.23;71.51;99993.20;104804;1257;108821;-79
2023/05/03 20:39:41;;;;;;;33.70;21.80;;;;;;;10.23;71.51;99995.33;104647;1264;96057;-79
2023/05/03 20:42:08;;;;;;;40.80;27.40;;;;;;;10.22;71.48;99994.67;104661;1265;106722;-79
2023/05/03 20:44:37;;;;;;;42.50;26.50;;;;;;;10.21;71.52;99994.23;104627;1270;95233;-79
2023/05/03 20:47:05;;;;;;;40.80;27.00;;;;;;;10.19;71.53;99989.17;104630;1262;95181;-80
2023/05/03 20:49:33;;;;;;;36.60;22.70;;;;;;;10.18;71.63;99988.55;104704;1258;108430;-78
2023/05/03 20:52:01;;;;;;;33.30;20.60;;;;;;;10.15;71.57;99984.79;104818;1259;96182;-79
2023/05/03 20:54:29;;;;;;;35.00;21.40;;;;;;;10.17;71.64;99982.59;104678;1262;108791;-78
2023/05/03 20:56:57;;;;;;;31.20;20.00;;;;;;;10.15;71.70;99984.98;104660;1262;96133;-79
2023/05/03 20:59:26;;;;;;;30.10;19.40;;;;;;;10.15;71.80;99985.50;104630;1262;95335;-79
2023/05/03 21:01:55;;;;;;;30.60;19.00;;;;;;;10.14;71.67;99979.39;104704;1259;109898;-79
2023/05/03 21:04:25;;;;;;;32.40;19.80;;;;;;;10.13;71.77;99975.31;104706;1262;95290;-79
2023/05/03 21:06:52;;;;;;;30.60;18.60;;;;;;;10.13;71.76;99974.64;104634;1262;105669;-79
2023/05/03 21:09:20;;;;;;;30.60;18.70;;;;;;;10.13;71.78;99973.39;104743;1262;95344;-79
2023/05/03 21:11:48;;;;;;;33.80;20.20;;;;;;;10.11;71.90;99975.78;104696;1262;96179;-79
2023/05/03 21:14:17;;;;;;;31.40;20.00;;;;;;;10.12;71.89;99976.13;104663;1262;107628;-79
2023/05/03 21:16:45;;;;;;;33.70;20.00;;;;;;;10.11;71.88;99978.83;104715;1262;95234;-79
2023/05/03 21:19:13;;;;;;;30.50;18.60;;;;;;;10.08;71.83;99975.23;104644;1257;107657;-79
2023/05/03 21:21:41;;;;;;;33.00;19.20;;;;;;;10.09;71.94;99980.32;104705;1259;95236;-79
2023/05/03 21:24:08;;;;;;;30.60;19.40;;;;;;;10.11;71.98;99979.02;104647;1261;95855;-79
2023/05/03 21:26:36;;;;;;;31.70;19.60;;;;;;;10.11;71.93;99980.21;104696;1259;110518;-79
2023/05/03 21:29:05;;;;;;;32.70;20.10;;;;;;;10.11;71.90;99980.61;104651;1261;95932;-79
2023/05/03 21:31:33;;;;;;;33.80;20.30;;;;;;;10.11;71.97;99981.84;104772;1259;107926;-79
2023/05/03 21:34:02;;;;;;;30.40;19.90;;;;;;;10.10;72.06;99981.70;104627;1261;96197;-79
2023/05/03 21:36:31;;;;;;;32.00;19.40;;;;;;;10.10;72.12;99982.96;104682;1258;95241;-79
2023/05/03 21:38:59;;;;;;;30.30;19.20;;;;;;;10.08;72.06;99980.38;104627;1261;108799;-79
2023/05/03 21:41:27;;;;;;;31.20;20.50;;;;;;;10.07;72.05;99974.79;104650;1262;95257;-79
2023/05/03 21:43:55;;;;;;;29.90;19.50;;;;;;;10.05;72.05;99976.30;104713;1262;108934;-79
2023/05/03 21:46:23;;;;;;;33.40;21.20;;;;;;;10.04;72.07;99977.23;104686;1262;95234;-79
2023/05/03 21:48:51;;;;;;;31.60;20.00;;;;;;;10.04;72.10;99979.04;104653;1262;95294;-79
2023/05/03 21:51:20;;;;;;;29.10;18.90;;;;;;;10.01;72.04;99979.19;104653;1258;107905;-79
2023/05/03 21:53:49;;;;;;;41.40;26.50;;;;;;;9.97;72.01;99979.95;104657;1262;95344;-79
2023/05/03 21:56:16;;;;;;;40.60;24.40;;;;;;;9.93;72.03;99980.85;104609;1264;107822;-79